Terminal Aerodrome Forecast
Issued by NWS

Home | Current Version | Previous Version | Graphics & Text | Print | Product List | Glossary On
Versions: 1 2 3 4 5 6 7 8 9 10 11 12 13 14 15
000
FTUS43 KFGF 191139
TAFBJI
TAF
KBJI 191139Z 1912/2012 24007KT P6SM SKC
     FM192000 21008KT P6SM FEW250
     FM200900 15008KT P6SM VCTS BKN060CB=

USA.gov is the U.S. government's official web portal to all federal, state and local government web resources and services.